sensor_id;sensor_type;location;lat;lon;timestamp;temperature;humidity
13835;DHT22;6988;52.614;13.500;2023-02-15T00:03:44;4.30;99.90
13835;DHT22;6988;52.614;13.500;2023-02-15T00:08:36;4.20;99.90
13835;DHT22;6988;52.614;13.500;2023-02-15T00:13:29;4.20;99.90
13835;DHT22;6988;52.614;13.500;2023-02-15T00:18:21;4.20;99.90
13835;DHT22;6988;52.614;13.500;2023-02-15T00:23:13;4.10;99.90
13835;DHT22;6988;52.614;13.500;2023-02-15T00:28:05;4.00;99.90
13835;DHT22;6988;52.614;13.500;2023-02-15T00:33:00;3.80;99.90
13835;DHT22;6988;52.614;13.500;2023-02-15T00:37:52;3.70;99.90
13835;DHT22;6988;52.614;13.500;2023-02-15T00:42:43;3.50;99.90
13835;DHT22;6988;52.614;13.500;2023-02-15T00:47:35;3.40;99.90
13835;DHT22;6988;52.614;13.500;2023-02-15T00:52:28;3.30;99.90
13835;DHT22;6988;52.614;13.500;2023-02-15T00:57:20;3.20;99.90
13835;DHT22;6988;52.614;13.500;2023-02-15T01:02:12;3.20;99.90
13835;DHT22;6988;52.614;13.500;2023-02-15T01:07:04;3.10;99.90
13835;DHT22;6988;52.614;13.500;2023-02-15T01:11:58;3.00;99.90
13835;DHT22;6988;52.614;13.500;2023-02-15T01:16:50;2.90;99.90
13835;DHT22;6988;52.614;13.500;2023-02-15T01:21:42;2.80;99.90
13835;DHT22;6988;52.614;13.500;2023-02-15T01:26:34;2.70;99.90
13835;DHT22;6988;52.614;13.500;2023-02-15T01:31:27;2.60;99.90
13835;DHT22;6988;52.614;13.500;2023-02-15T01:36:19;2.60;99.90
13835;DHT22;6988;52.614;13.500;2023-02-15T01:41:11;2.50;99.90
13835;DHT22;6988;52.614;13.500;2023-02-15T01:46:16;2.40;99.90
13835;DHT22;6988;52.614;13.500;2023-02-15T01:51:13;2.30;99.90
13835;DHT22;6988;52.614;13.500;2023-02-15T01:56:11;2.20;99.90
13835;DHT22;6988;52.614;13.500;2023-02-15T02:01:07;2.20;99.90
13835;DHT22;6988;52.614;13.500;2023-02-15T02:06:00;2.00;99.90
13835;DHT22;6988;52.614;13.500;2023-02-15T02:10:53;1.90;99.90
13835;DHT22;6988;52.614;13.500;2023-02-15T02:15:49;1.80;99.90
13835;DHT22;6988;52.614;13.500;2023-02-15T02:21:16;1.60;99.90
13835;DHT22;6988;52.614;13.500;2023-02-15T02:27:19;1.40;99.90
13835;DHT22;6988;52.614;13.500;2023-02-15T02:32:53;1.20;99.90
13835;DHT22;6988;52.614;13.500;2023-02-15T02:38:03;1.00;99.90
13835;DHT22;6988;52.614;13.500;2023-02-15T02:43:07;0.90;99.90
13835;DHT22;6988;52.614;13.500;2023-02-15T02:48:12;0.90;99.90
13835;DHT22;6988;52.614;13.500;2023-02-15T02:53:06;0.90;99.90
13835;DHT22;6988;52.614;13.500;2023-02-15T02:58:04;0.90;99.90
13835;DHT22;6988;52.614;13.500;2023-02-15T03:03:03;0.70;99.90
13835;DHT22;6988;52.614;13.500;2023-02-15T03:08:04;0.60;99.90
13835;DHT22;6988;52.614;13.500;2023-02-15T03:13:00;0.60;99.90
13835;DHT22;6988;52.614;13.500;2023-02-15T03:17:56;0.50;99.90
13835;DHT22;6988;52.614;13.500;2023-02-15T03:22:54;0.50;99.90
13835;DHT22;6988;52.614;13.500;2023-02-15T03:27:54;0.50;99.90
13835;DHT22;6988;52.614;13.500;2023-02-15T03:32:51;0.40;99.90
13835;DHT22;6988;52.614;13.500;2023-02-15T03:37:48;0.40;99.90
13835;DHT22;6988;52.614;13.500;2023-02-15T03:42:47;0.30;99.90
13835;DHT22;6988;52.614;13.500;2023-02-15T03:47:47;0.30;99.90
13835;DHT22;6988;52.614;13.500;2023-02-15T03:52:42;0.30;99.90
13835;DHT22;6988;52.614;13.500;2023-02-15T03:57:35;0.20;99.90
13835;DHT22;6988;52.614;13.500;2023-02-15T04:02:59;0.10;99.90
13835;DHT22;6988;52.614;13.500;2023-02-15T04:07:59;0.00;99.90
13835;DHT22;6988;52.614;13.500;2023-02-15T04:12:50;-0.10;99.90
13835;DHT22;6988;52.614;13.500;2023-02-15T04:17:42;-0.10;99.90
13835;DHT22;6988;52.614;13.500;2023-02-15T04:22:35;-0.20;99.90
13835;DHT22;6988;52.614;13.500;2023-02-15T04:27:47;-0.30;99.90
13835;DHT22;6988;52.614;13.500;2023-02-15T04:32:40;-0.30;99.90
13835;DHT22;6988;52.614;13.500;2023-02-15T04:37:33;-0.30;99.90
13835;DHT22;6988;52.614;13.500;2023-02-15T04:42:27;-0.30;99.90
13835;DHT22;6988;52.614;13.500;2023-02-15T04:47:19;-0.30;99.90
13835;DHT22;6988;52.614;13.500;2023-02-15T04:52:11;-0.40;99.90
13835;DHT22;6988;52.614;13.500;2023-02-15T04:57:03;-0.40;99.90
13835;DHT22;6988;52.614;13.500;2023-02-15T05:01:57;-0.40;99.90
13835;DHT22;6988;52.614;13.500;2023-02-15T05:06:49;-0.40;99.90
13835;DHT22;6988;52.614;13.500;2023-02-15T05:11:41;-0.50;99.90
13835;DHT22;6988;52.614;13.500;2023-02-15T05:16:33;-0.50;99.90
13835;DHT22;6988;52.614;13.500;2023-02-15T05:21:27;-0.50;99.90
13835;DHT22;6988;52.614;13.500;2023-02-15T05:26:21;-0.60;99.90
13835;DHT22;6988;52.614;13.500;2023-02-15T05:31:34;-0.60;99.90
13835;DHT22;6988;52.614;13.500;2023-02-15T05:36:27;-0.60;99.90
13835;DHT22;6988;52.614;13.500;2023-02-15T05:41:19;-0.60;99.90
13835;DHT22;6988;52.614;13.500;2023-02-15T05:46:12;-0.60;99.90
13835;DHT22;6988;52.614;13.500;2023-02-15T05:51:06;-0.60;99.90
13835;DHT22;6988;52.614;13.500;2023-02-15T05:56:01;-0.60;99.90
13835;DHT22;6988;52.614;13.500;2023-02-15T06:00:54;-0.50;99.90
13835;DHT22;6988;52.614;13.500;2023-02-15T06:05:46;-0.70;99.90
13835;DHT22;6988;52.614;13.500;2023-02-15T06:10:40;-0.70;99.90
13835;DHT22;6988;52.614;13.500;2023-02-15T06:15:33;-0.70;99.90
13835;DHT22;6988;52.614;13.500;2023-02-15T06:20:25;-0.60;99.90
13835;DHT22;6988;52.614;13.500;2023-02-15T06:25:17;-0.40;99.90
13835;DHT22;6988;52.614;13.500;2023-02-15T06:30:10;-0.30;99.90
13835;DHT22;6988;52.614;13.500;2023-02-15T06:35:05;-0.20;99.90
13835;DHT22;6988;52.614;13.500;2023-02-15T06:39:57;-0.20;99.90
13835;DHT22;6988;52.614;13.500;2023-02-15T06:44:49;-0.10;99.90
13835;DHT22;6988;52.614;13.500;2023-02-15T06:49:41;-0.10;99.90
13835;DHT22;6988;52.614;13.500;2023-02-15T06:54:34;-0.10;99.90
13835;DHT22;6988;52.614;13.500;2023-02-15T06:59:26;-0.20;99.90
13835;DHT22;6988;52.614;13.500;2023-02-15T07:04:17;-0.10;99.90
13835;DHT22;6988;52.614;13.500;2023-02-15T07:09:09;-0.10;99.90
13835;DHT22;6988;52.614;13.500;2023-02-15T07:14:03;0.00;99.90
13835;DHT22;6988;52.614;13.500;2023-02-15T07:18:54;0.10;99.90
13835;DHT22;6988;52.614;13.500;2023-02-15T07:23:46;0.10;99.90
13835;DHT22;6988;52.614;13.500;2023-02-15T07:28:38;0.20;99.90
13835;DHT22;6988;52.614;13.500;2023-02-15T07:33:32;0.20;99.90
13835;DHT22;6988;52.614;13.500;2023-02-15T07:38:25;0.20;99.90
13835;DHT22;6988;52.614;13.500;2023-02-15T07:43:18;0.10;99.90
13835;DHT22;6988;52.614;13.500;2023-02-15T07:48:10;0.10;99.90
13835;DHT22;6988;52.614;13.500;2023-02-15T07:53:03;0.20;99.90
13835;DHT22;6988;52.614;13.500;2023-02-15T07:57:55;0.30;99.90
13835;DHT22;6988;52.614;13.500;2023-02-15T08:02:47;0.20;99.90
13835;DHT22;6988;52.614;13.500;2023-02-15T08:07:59;0.30;99.90
13835;DHT22;6988;52.614;13.500;2023-02-15T08:12:54;0.30;99.90
13835;DHT22;6988;52.614;13.500;2023-02-15T08:17:46;0.40;99.90
13835;DHT22;6988;52.614;13.500;2023-02-15T08:22:38;0.30;99.90
13835;DHT22;6988;52.614;13.500;2023-02-15T08:27:30;0.40;99.90
13835;DHT22;6988;52.614;13.500;2023-02-15T08:32:23;0.50;99.90
13835;DHT22;6988;52.614;13.500;2023-02-15T08:37:14;0.40;99.90
13835;DHT22;6988;52.614;13.500;2023-02-15T08:42:06;0.60;99.90
13835;DHT22;6988;52.614;13.500;2023-02-15T08:46:58;0.60;99.90
13835;DHT22;6988;52.614;13.500;2023-02-15T08:51:55;0.50;99.90
13835;DHT22;6988;52.614;13.500;2023-02-15T08:56:47;0.50;99.90
13835;DHT22;6988;52.614;13.500;2023-02-15T09:01:39;0.60;99.90
13835;DHT22;6988;52.614;13.500;2023-02-15T09:06:32;0.70;99.90
13835;DHT22;6988;52.614;13.500;2023-02-15T09:11:26;0.70;99.90
13835;DHT22;6988;52.614;13.500;2023-02-15T09:16:20;0.70;99.90
13835;DHT22;6988;52.614;13.500;2023-02-15T09:21:15;0.70;99.90
13835;DHT22;6988;52.614;13.500;2023-02-15T09:26:10;0.80;99.90
13835;DHT22;6988;52.614;13.500;2023-02-15T09:31:09;1.00;99.90
13835;DHT22;6988;52.614;13.500;2023-02-15T09:36:03;1.00;99.90
13835;DHT22;6988;52.614;13.500;2023-02-15T09:41:07;1.20;99.90
13835;DHT22;6988;52.614;13.500;2023-02-15T09:46:40;1.40;99.90
13835;DHT22;6988;52.614;13.500;2023-02-15T09:51:56;1.40;99.90
13835;DHT22;6988;52.614;13.500;2023-02-15T09:57:12;1.60;99.90
13835;DHT22;6988;52.614;13.500;2023-02-15T10:02:25;1.70;99.90
13835;DHT22;6988;52.614;13.500;2023-02-15T10:07:40;1.70;99.90
13835;DHT22;6988;52.614;13.500;2023-02-15T10:12:55;1.90;99.90
13835;DHT22;6988;52.614;13.500;2023-02-15T10:18:22;2.00;99.90
13835;DHT22;6988;52.614;13.500;2023-02-15T10:29:27;2.20;99.90
13835;DHT22;6988;52.614;13.500;2023-02-15T10:34:35;2.30;99.90
13835;DHT22;6988;52.614;13.500;2023-02-15T10:39:36;2.20;99.90
13835;DHT22;6988;52.614;13.500;2023-02-15T10:44:44;2.40;99.90
13835;DHT22;6988;52.614;13.500;2023-02-15T10:50:00;2.60;99.90
13835;DHT22;6988;52.614;13.500;2023-02-15T10:55:14;2.80;99.90
13835;DHT22;6988;52.614;13.500;2023-02-15T11:00:16;2.90;99.90
13835;DHT22;6988;52.614;13.500;2023-02-15T11:05:36;3.10;99.90
13835;DHT22;6988;52.614;13.500;2023-02-15T11:10:39;3.30;99.90
13835;DHT22;6988;52.614;13.500;2023-02-15T11:15:36;3.30;99.90
13835;DHT22;6988;52.614;13.500;2023-02-15T11:20:38;3.60;99.90
13835;DHT22;6988;52.614;13.500;2023-02-15T11:25:35;3.70;99.90
13835;DHT22;6988;52.614;13.500;2023-02-15T11:30:34;3.90;99.90
13835;DHT22;6988;52.614;13.500;2023-02-15T11:35:40;4.10;99.90
13835;DHT22;6988;52.614;13.500;2023-02-15T11:40:45;4.20;99.90
13835;DHT22;6988;52.614;13.500;2023-02-15T11:45:41;4.40;99.90
13835;DHT22;6988;52.614;13.500;2023-02-15T11:50:36;4.80;99.90
13835;DHT22;6988;52.614;13.500;2023-02-15T11:55:30;5.10;99.90
13835;DHT22;6988;52.614;13.500;2023-02-15T12:00:31;5.40;99.90
13835;DHT22;6988;52.614;13.500;2023-02-15T12:05:27;5.70;99.90
13835;DHT22;6988;52.614;13.500;2023-02-15T12:10:23;6.10;99.90
13835;DHT22;6988;52.614;13.500;2023-02-15T12:15:30;6.40;99.90
13835;DHT22;6988;52.614;13.500;2023-02-15T12:20:28;6.80;99.90
13835;DHT22;6988;52.614;13.500;2023-02-15T12:25:26;7.00;99.90
13835;DHT22;6988;52.614;13.500;2023-02-15T12:30:30;7.30;99.90
13835;DHT22;6988;52.614;13.500;2023-02-15T12:35:28;7.70;99.90
13835;DHT22;6988;52.614;13.500;2023-02-15T12:40:24;7.90;99.90
13835;DHT22;6988;52.614;13.500;2023-02-15T12:45:26;8.20;99.90
13835;DHT22;6988;52.614;13.500;2023-02-15T12:50:22;8.40;99.90
13835;DHT22;6988;52.614;13.500;2023-02-15T12:55:22;8.60;99.90
13835;DHT22;6988;52.614;13.500;2023-02-15T13:00:28;8.70;99.90
13835;DHT22;6988;52.614;13.500;2023-02-15T13:05:26;9.00;99.90
13835;DHT22;6988;52.614;13.500;2023-02-15T13:10:26;9.40;99.90
13835;DHT22;6988;52.614;13.500;2023-02-15T13:15:30;9.20;99.90
13835;DHT22;6988;52.614;13.500;2023-02-15T13:20:27;9.60;99.90
13835;DHT22;6988;52.614;13.500;2023-02-15T13:25:22;9.70;99.90
13835;DHT22;6988;52.614;13.500;2023-02-15T13:30:25;10.00;99.90
13835;DHT22;6988;52.614;13.500;2023-02-15T13:35:21;10.30;99.90
13835;DHT22;6988;52.614;13.500;2023-02-15T13:40:18;10.10;99.90
13835;DHT22;6988;52.614;13.500;2023-02-15T13:45:28;10.30;99.90
13835;DHT22;6988;52.614;13.500;2023-02-15T13:50:52;10.70;99.90
13835;DHT22;6988;52.614;13.500;2023-02-15T13:55:59;10.90;99.90
13835;DHT22;6988;52.614;13.500;2023-02-15T14:01:06;11.30;99.90
13835;DHT22;6988;52.614;13.500;2023-02-15T14:06:24;11.50;99.90
13835;DHT22;6988;52.614;13.500;2023-02-15T14:11:36;11.40;99.90
13835;DHT22;6988;52.614;13.500;2023-02-15T14:16:39;11.40;99.90
13835;DHT22;6988;52.614;13.500;2023-02-15T14:21:44;11.30;99.90
13835;DHT22;6988;52.614;13.500;2023-02-15T14:26:47;11.30;99.90
13835;DHT22;6988;52.614;13.500;2023-02-15T14:31:47;11.30;99.90
13835;DHT22;6988;52.614;13.500;2023-02-15T14:36:45;11.30;99.90
13835;DHT22;6988;52.614;13.500;2023-02-15T14:41:41;11.40;99.90
13835;DHT22;6988;52.614;13.500;2023-02-15T14:46:44;11.40;99.90
13835;DHT22;6988;52.614;13.500;2023-02-15T14:52:12;11.30;99.90
13835;DHT22;6988;52.614;13.500;2023-02-15T14:57:27;11.10;99.90
13835;DHT22;6988;52.614;13.500;2023-02-15T15:02:23;10.60;99.90
13835;DHT22;6988;52.614;13.500;2023-02-15T15:07:23;10.50;99.90
13835;DHT22;6988;52.614;13.500;2023-02-15T15:12:38;10.30;99.90
13835;DHT22;6988;52.614;13.500;2023-02-15T15:17:57;10.10;99.90
13835;DHT22;6988;52.614;13.500;2023-02-15T15:28:54;9.90;99.90
13835;DHT22;6988;52.614;13.500;2023-02-15T15:45:41;9.40;99.90
13835;DHT22;6988;52.614;13.500;2023-02-15T15:50:41;9.30;99.90
13835;DHT22;6988;52.614;13.500;2023-02-15T15:55:35;9.10;99.90
13835;DHT22;6988;52.614;13.500;2023-02-15T16:00:34;9.00;99.90
13835;DHT22;6988;52.614;13.500;2023-02-15T16:05:35;8.80;99.90
13835;DHT22;6988;52.614;13.500;2023-02-15T16:10:30;8.60;99.90
13835;DHT22;6988;52.614;13.500;2023-02-15T16:15:33;8.30;99.90
13835;DHT22;6988;52.614;13.500;2023-02-15T16:20:30;8.10;99.90
13835;DHT22;6988;52.614;13.500;2023-02-15T16:25:35;7.90;99.90
13835;DHT22;6988;52.614;13.500;2023-02-15T16:30:35;7.80;99.90
13835;DHT22;6988;52.614;13.500;2023-02-15T16:35:29;7.60;99.90
13835;DHT22;6988;52.614;13.500;2023-02-15T16:40:35;7.30;99.90
13835;DHT22;6988;52.614;13.500;2023-02-15T16:45:40;6.90;99.90
13835;DHT22;6988;52.614;13.500;2023-02-15T16:50:33;6.70;99.90
13835;DHT22;6988;52.614;13.500;2023-02-15T16:55:30;6.70;99.90
13835;DHT22;6988;52.614;13.500;2023-02-15T17:00:30;6.40;99.90
13835;DHT22;6988;52.614;13.500;2023-02-15T17:05:30;6.30;99.90
13835;DHT22;6988;52.614;13.500;2023-02-15T17:10:27;6.20;99.90
13835;DHT22;6988;52.614;13.500;2023-02-15T17:15:27;6.00;99.90
13835;DHT22;6988;52.614;13.500;2023-02-15T17:20:21;5.90;99.90
13835;DHT22;6988;52.614;13.500;2023-02-15T17:25:19;5.80;99.90
13835;DHT22;6988;52.614;13.500;2023-02-15T17:30:17;5.70;99.90
13835;DHT22;6988;52.614;13.500;2023-02-15T17:35:20;5.60;99.90
13835;DHT22;6988;52.614;13.500;2023-02-15T17:40:21;5.30;99.90
13835;DHT22;6988;52.614;13.500;2023-02-15T17:45:15;5.10;99.90
13835;DHT22;6988;52.614;13.500;2023-02-15T17:50:17;5.00;99.90
13835;DHT22;6988;52.614;13.500;2023-02-15T17:55:14;4.90;99.90
13835;DHT22;6988;52.614;13.500;2023-02-15T18:00:26;4.80;99.90
13835;DHT22;6988;52.614;13.500;2023-02-15T18:05:35;4.70;99.90
13835;DHT22;6988;52.614;13.500;2023-02-15T18:10:45;4.60;99.90
13835;DHT22;6988;52.614;13.500;2023-02-15T18:15:56;4.50;99.90
13835;DHT22;6988;52.614;13.500;2023-02-15T18:20:48;4.40;99.90
13835;DHT22;6988;52.614;13.500;2023-02-15T18:25:41;4.30;99.90
13835;DHT22;6988;52.614;13.500;2023-02-15T18:30:33;4.20;99.90
13835;DHT22;6988;52.614;13.500;2023-02-15T18:35:30;4.10;99.90
13835;DHT22;6988;52.614;13.500;2023-02-15T18:40:26;4.10;99.90
13835;DHT22;6988;52.614;13.500;2023-02-15T18:45:21;4.00;99.90
13835;DHT22;6988;52.614;13.500;2023-02-15T18:50:15;3.90;99.90
13835;DHT22;6988;52.614;13.500;2023-02-15T18:55:18;3.90;99.90
13835;DHT22;6988;52.614;13.500;2023-02-15T19:00:17;3.80;99.90
13835;DHT22;6988;52.614;13.500;2023-02-15T19:05:10;3.70;99.90
13835;DHT22;6988;52.614;13.500;2023-02-15T19:10:05;3.50;99.90
13835;DHT22;6988;52.614;13.500;2023-02-15T19:15:00;3.40;99.90
13835;DHT22;6988;52.614;13.500;2023-02-15T19:19:52;3.30;99.90
13835;DHT22;6988;52.614;13.500;2023-02-15T19:24:46;3.30;99.90
13835;DHT22;6988;52.614;13.500;2023-02-15T19:29:38;3.20;99.90
13835;DHT22;6988;52.614;13.500;2023-02-15T19:34:32;3.20;99.90
13835;DHT22;6988;52.614;13.500;2023-02-15T19:39:26;3.10;99.90
13835;DHT22;6988;52.614;13.500;2023-02-15T19:44:20;3.00;99.90
13835;DHT22;6988;52.614;13.500;2023-02-15T19:49:12;2.90;99.90
13835;DHT22;6988;52.614;13.500;2023-02-15T19:54:17;2.90;99.90
13835;DHT22;6988;52.614;13.500;2023-02-15T19:59:22;2.80;99.90
13835;DHT22;6988;52.614;13.500;2023-02-15T20:04:15;2.80;99.90
13835;DHT22;6988;52.614;13.500;2023-02-15T20:09:17;2.70;99.90
13835;DHT22;6988;52.614;13.500;2023-02-15T20:14:13;2.60;99.90
13835;DHT22;6988;52.614;13.500;2023-02-15T20:19:05;2.60;99.90
13835;DHT22;6988;52.614;13.500;2023-02-15T20:23:59;2.50;99.90
13835;DHT22;6988;52.614;13.500;2023-02-15T20:28:52;2.40;99.90
13835;DHT22;6988;52.614;13.500;2023-02-15T20:33:44;2.40;99.90
13835;DHT22;6988;52.614;13.500;2023-02-15T20:38:36;2.30;99.90
13835;DHT22;6988;52.614;13.500;2023-02-15T20:43:31;2.20;99.90
13835;DHT22;6988;52.614;13.500;2023-02-15T20:48:24;2.10;99.90
13835;DHT22;6988;52.614;13.500;2023-02-15T20:53:16;2.10;99.90
13835;DHT22;6988;52.614;13.500;2023-02-15T20:58:19;2.00;99.90
13835;DHT22;6988;52.614;13.500;2023-02-15T21:03:12;2.00;99.90
13835;DHT22;6988;52.614;13.500;2023-02-15T21:08:10;1.90;99.90
13835;DHT22;6988;52.614;13.500;2023-02-15T21:13:03;1.80;99.90
13835;DHT22;6988;52.614;13.500;2023-02-15T21:17:57;1.80;99.90
13835;DHT22;6988;52.614;13.500;2023-02-15T21:22:51;1.80;99.90
13835;DHT22;6988;52.614;13.500;2023-02-15T21:27:44;1.80;99.90
13835;DHT22;6988;52.614;13.500;2023-02-15T21:32:36;1.70;99.90
13835;DHT22;6988;52.614;13.500;2023-02-15T21:37:31;1.60;99.90
13835;DHT22;6988;52.614;13.500;2023-02-15T21:42:27;1.60;99.90
13835;DHT22;6988;52.614;13.500;2023-02-15T21:47:37;1.50;99.90
13835;DHT22;6988;52.614;13.500;2023-02-15T21:52:41;1.40;99.90
13835;DHT22;6988;52.614;13.500;2023-02-15T21:57:33;1.40;99.90
13835;DHT22;6988;52.614;13.500;2023-02-15T22:02:28;1.30;99.90
13835;DHT22;6988;52.614;13.500;2023-02-15T22:07:22;1.30;99.90
13835;DHT22;6988;52.614;13.500;2023-02-15T22:12:16;1.20;99.90
13835;DHT22;6988;52.614;13.500;2023-02-15T22:17:14;1.20;99.90
13835;DHT22;6988;52.614;13.500;2023-02-15T22:22:06;1.20;99.90
13835;DHT22;6988;52.614;13.500;2023-02-15T22:27:00;1.10;99.90
13835;DHT22;6988;52.614;13.500;2023-02-15T22:31:52;1.10;99.90
13835;DHT22;6988;52.614;13.500;2023-02-15T22:36:43;1.10;99.90
13835;DHT22;6988;52.614;13.500;2023-02-15T22:41:35;1.10;99.90
13835;DHT22;6988;52.614;13.500;2023-02-15T23:15:14;0.70;99.90
13835;DHT22;6988;52.614;13.500;2023-02-15T23:20:08;0.80;99.90
13835;DHT22;6988;52.614;13.500;2023-02-15T23:25:08;0.70;99.90
13835;DHT22;6988;52.614;13.500;2023-02-15T23:30:03;0.70;99.90
13835;DHT22;6988;52.614;13.500;2023-02-15T23:34:58;0.60;99.90
13835;DHT22;6988;52.614;13.500;2023-02-15T23:39:50;0.60;99.90
13835;DHT22;6988;52.614;13.500;2023-02-15T23:45:00;0.60;99.90
13835;DHT22;6988;52.614;13.500;2023-02-15T23:49:53;0.60;99.90
13835;DHT22;6988;52.614;13.500;2023-02-15T23:54:46;0.50;99.90
13835;DHT22;6988;52.614;13.500;2023-02-15T23:59:40;0.60;99.90
